Terminal Aerodrome Forecast
Issued by NWS Twin Cities, MN

Home | Current Version | Previous Version | Text Only | Print | Product List | Glossary On
Versions: 1 2 3 4 5 6 7 8 9 10 11 12 13 14 15 16 17 18 19 20 21
000
FTUS43 KMPX 241900 AAA
TAFEAU
TAF AMD
KEAU 241918Z 2419/2518 30018G24KT 1 1/2SM -SN OVC015
     FM242300 31017G24KT 5SM -SHSN OVC015
     FM250300 29009KT P6SM OVC015
     FM251200 26007KT P6SM SCT100=

USA.gov is the U.S. government's official web portal to all federal, state and local government web resources and services.